Time;durP1;ratioP1;P1;durP2;ratioP2;P2;SDS_P1;SDS_P2;PMS_P1;PMS_P2;Temp;Humidity;BMP_temperature;BMP_pressure;BME280_temperature;BME280_humidity;BME280_pressure;Samples;Min_cycle;Max_cycle;Signal;HPM_P1;HPM_P2
2021/09/06 00:01:27;;;;;;;13.90;12.43;;;;;;;;;;5089761;28;20194;-46
2021/09/06 00:03:53;;;;;;;13.23;11.77;;;;;;;;;;5085335;28;20181;-46
2021/09/06 00:06:19;;;;;;;15.50;12.85;;;;;;;;;;5097271;28;20537;-46
2021/09/06 00:08:45;;;;;;;14.10;12.32;;;;;;;;;;5098973;28;20584;-46
2021/09/06 00:11:12;;;;;;;14.13;12.05;;;;;;;;;;5088812;28;20264;-46
2021/09/06 00:13:39;;;;;;;13.77;12.27;;;;;;;;;;5095595;28;20198;-46
2021/09/06 00:16:06;;;;;;;14.45;12.98;;;;;;;;;;5084337;28;20518;-46
2021/09/06 00:18:32;;;;;;;13.20;11.90;;;;;;;;;;5085929;28;20187;-46
2021/09/06 00:21:01;;;;;;;13.90;11.75;;;;;;;;;;5097224;28;20201;-46
2021/09/06 00:23:27;;;;;;;13.90;12.13;;;;;;;;;;5100878;28;20707;-46
2021/09/06 00:25:54;;;;;;;17.83;12.65;;;;;;;;;;5100687;28;20182;-45
2021/09/06 00:28:20;;;;;;;15.23;13.07;;;;;;;;;;5100372;28;20914;-45
2021/09/06 00:30:46;;;;;;;13.52;12.05;;;;;;;;;;5097137;28;20190;-45
2021/09/06 00:33:12;;;;;;;11.73;10.48;;;;;;;;;;5101035;28;20250;-45
2021/09/06 00:35:38;;;;;;;15.65;12.80;;;;;;;;;;5094385;28;20178;-45
2021/09/06 00:38:04;;;;;;;16.35;13.07;;;;;;;;;;5090341;28;20193;-45
2021/09/06 00:40:30;;;;;;;14.40;12.57;;;;;;;;;;5096587;28;20498;-46
2021/09/06 00:42:57;;;;;;;16.90;13.27;;;;;;;;;;5100788;28;20226;-46
2021/09/06 00:45:23;;;;;;;14.23;12.45;;;;;;;;;;5100744;28;20873;-46
2021/09/06 00:47:49;;;;;;;14.15;12.45;;;;;;;;;;5100116;28;20437;-46
2021/09/06 00:50:16;;;;;;;16.35;13.32;;;;;;;;;;5098490;28;20174;-46
2021/09/06 00:52:43;;;;;;;16.48;13.35;;;;;;;;;;5098197;28;20201;-46
2021/09/06 00:55:10;;;;;;;16.63;13.35;;;;;;;;;;5100357;28;20165;-46
2021/09/06 00:57:36;;;;;;;16.13;12.77;;;;;;;;;;5099990;28;20294;-45
2021/09/06 01:00:04;;;;;;;18.38;13.50;;;;;;;;;;5100632;28;20541;-45
2021/09/06 01:02:30;;;;;;;18.90;14.10;;;;;;;;;;5100603;28;20580;-45
2021/09/06 01:04:56;;;;;;;16.48;13.30;;;;;;;;;;5100235;28;20181;-45
2021/09/06 01:07:22;;;;;;;15.77;13.07;;;;;;;;;;5099866;28;20177;-45
2021/09/06 01:09:48;;;;;;;16.10;13.02;;;;;;;;;;5081033;28;20244;-45
2021/09/06 01:12:14;;;;;;;17.50;13.13;;;;;;;;;;5090674;28;20173;-45
2021/09/06 01:14:41;;;;;;;18.05;14.13;;;;;;;;;;5097352;28;20285;-45
2021/09/06 01:17:07;;;;;;;17.58;14.15;;;;;;;;;;5096493;28;20173;-45
2021/09/06 01:19:33;;;;;;;18.90;13.82;;;;;;;;;;5096890;28;20253;-45
2021/09/06 01:21:59;;;;;;;19.30;13.88;;;;;;;;;;5076624;28;20262;-45
2021/09/06 01:24:25;;;;;;;20.45;14.25;;;;;;;;;;5077233;28;20232;-45
2021/09/06 01:26:51;;;;;;;20.55;14.55;;;;;;;;;;5086775;28;20232;-45
2021/09/06 01:29:17;;;;;;;23.05;14.82;;;;;;;;;;5096820;28;20239;-45
2021/09/06 01:31:43;;;;;;;19.60;14.80;;;;;;;;;;5092211;28;20501;-45
2021/09/06 01:34:11;;;;;;;21.55;14.38;;;;;;;;;;5093529;28;20197;-45
2021/09/06 01:36:37;;;;;;;20.17;14.85;;;;;;;;;;5089099;28;20205;-45
2021/09/06 01:39:04;;;;;;;17.73;14.35;;;;;;;;;;5095781;28;20212;-46
2021/09/06 01:41:30;;;;;;;17.85;13.68;;;;;;;;;;5096059;28;20193;-46
2021/09/06 01:43:56;;;;;;;19.15;14.30;;;;;;;;;;5088011;28;20186;-46
2021/09/06 01:46:26;;;;;;;17.83;13.82;;;;;;;;;;5090168;28;20170;-46
2021/09/06 01:48:54;;;;;;;18.52;14.23;;;;;;;;;;5095890;28;20181;-46
2021/09/06 01:51:20;;;;;;;21.65;15.45;;;;;;;;;;5095988;28;20177;-46
2021/09/06 01:53:46;;;;;;;19.55;14.90;;;;;;;;;;5095949;28;20316;-46
2021/09/06 01:56:12;;;;;;;21.17;15.88;;;;;;;;;;5095351;28;20181;-46
2021/09/06 01:58:38;;;;;;;21.38;14.70;;;;;;;;;;5094029;28;20260;-46
2021/09/06 02:01:04;;;;;;;18.65;13.43;;;;;;;;;;5095615;28;20285;-46
2021/09/06 02:03:30;;;;;;;20.35;13.98;;;;;;;;;;5096087;28;20185;-45
2021/09/06 02:05:56;;;;;;;13.98;12.50;;;;;;;;;;5088685;28;20266;-45
2021/09/06 02:08:22;;;;;;;14.63;12.50;;;;;;;;;;5081753;28;20187;-46
2021/09/06 02:10:48;;;;;;;14.10;12.57;;;;;;;;;;5075978;28;20189;-45
2021/09/06 02:13:14;;;;;;;14.05;12.55;;;;;;;;;;5079072;28;20198;-45
2021/09/06 02:15:40;;;;;;;13.30;11.85;;;;;;;;;;5089851;28;20182;-45
2021/09/06 02:18:06;;;;;;;13.25;11.93;;;;;;;;;;5090511;28;20261;-46
2021/09/06 02:20:32;;;;;;;12.00;10.80;;;;;;;;;;5095836;28;20204;-46
2021/09/06 02:22:58;;;;;;;12.43;10.95;;;;;;;;;;5096169;28;20208;-46
2021/09/06 02:25:24;;;;;;;12.57;11.25;;;;;;;;;;5095744;28;20585;-45
2021/09/06 02:27:50;;;;;;;11.40;10.25;;;;;;;;;;5087255;28;20200;-45
2021/09/06 02:30:16;;;;;;;10.60;9.50;;;;;;;;;;5093358;28;20693;-45
2021/09/06 02:32:42;;;;;;;12.32;10.75;;;;;;;;;;5095293;28;20255;-46
2021/09/06 02:35:08;;;;;;;13.20;10.45;;;;;;;;;;5095706;28;20207;-46
2021/09/06 02:37:34;;;;;;;10.85;9.75;;;;;;;;;;5095104;28;20185;-46
2021/09/06 02:40:00;;;;;;;11.77;10.57;;;;;;;;;;5095287;28;20269;-46
2021/09/06 02:42:26;;;;;;;10.40;9.30;;;;;;;;;;5094803;28;20265;-46
2021/09/06 02:44:52;;;;;;;12.60;10.23;;;;;;;;;;5095609;28;20177;-46
2021/09/06 02:47:18;;;;;;;11.70;10.50;;;;;;;;;;5075805;28;20248;-45
2021/09/06 02:49:44;;;;;;;11.07;9.98;;;;;;;;;;5075205;28;20178;-45
2021/09/06 02:52:10;;;;;;;11.50;10.40;;;;;;;;;;5075473;28;20223;-45
2021/09/06 02:54:36;;;;;;;11.10;10.00;;;;;;;;;;5088154;28;20262;-45
2021/09/06 02:57:02;;;;;;;11.02;9.80;;;;;;;;;;5094553;28;20174;-45
2021/09/06 02:59:28;;;;;;;12.02;9.93;;;;;;;;;;5094581;28;20273;-45
2021/09/06 03:01:55;;;;;;;10.50;9.50;;;;;;;;;;5094109;28;20292;-45
2021/09/06 03:04:21;;;;;;;10.82;9.73;;;;;;;;;;5095521;28;20600;-46
2021/09/06 03:06:47;;;;;;;9.70;8.73;;;;;;;;;;5080479;28;20190;-46
2021/09/06 03:09:13;;;;;;;9.70;8.70;;;;;;;;;;5082706;28;20197;-46
2021/09/06 03:11:39;;;;;;;10.05;9.05;;;;;;;;;;5074969;28;20189;-45
2021/09/06 03:14:06;;;;;;;10.07;9.07;;;;;;;;;;5083686;28;20644;-45
2021/09/06 03:16:31;;;;;;;10.48;9.38;;;;;;;;;;5094784;28;20541;-45
2021/09/06 03:18:58;;;;;;;10.27;9.15;;;;;;;;;;5094570;28;20192;-45
2021/09/06 03:21:24;;;;;;;10.57;9.48;;;;;;;;;;5083565;28;20320;-45
2021/09/06 03:23:51;;;;;;;10.07;9.07;;;;;;;;;;5080963;28;20191;-45
2021/09/06 03:26:17;;;;;;;9.48;8.57;;;;;;;;;;5074815;28;20178;-45
2021/09/06 03:28:43;;;;;;;9.52;8.52;;;;;;;;;;5088910;28;20433;-45
2021/09/06 03:31:09;;;;;;;8.70;7.90;;;;;;;;;;5093078;28;20178;-45
2021/09/06 03:33:35;;;;;;;9.60;8.60;;;;;;;;;;5094969;28;20273;-45
2021/09/06 03:36:01;;;;;;;10.50;9.48;;;;;;;;;;5094734;28;20185;-45
2021/09/06 03:38:27;;;;;;;9.05;8.15;;;;;;;;;;5093052;28;20185;-45
2021/09/06 03:40:53;;;;;;;9.68;8.70;;;;;;;;;;5093955;28;20531;-45
2021/09/06 03:43:19;;;;;;;9.20;8.30;;;;;;;;;;5082801;28;20271;-45
2021/09/06 03:45:45;;;;;;;9.63;8.73;;;;;;;;;;5089404;28;20181;-45
2021/09/06 03:48:11;;;;;;;9.95;8.95;;;;;;;;;;5090913;28;20269;-45
2021/09/06 03:50:37;;;;;;;9.75;7.90;;;;;;;;;;5089604;28;20186;-45
2021/09/06 03:53:03;;;;;;;8.48;7.60;;;;;;;;;;5090237;28;20198;-45
2021/09/06 03:55:29;;;;;;;8.52;7.63;;;;;;;;;;5083532;28;20473;-45
2021/09/06 03:57:55;;;;;;;8.95;7.32;;;;;;;;;;5076417;28;20174;-45
2021/09/06 04:00:21;;;;;;;9.23;7.88;;;;;;;;;;5081286;28;20178;-45
2021/09/06 04:02:47;;;;;;;8.93;8.02;;;;;;;;;;5093153;28;20257;-45
2021/09/06 04:05:13;;;;;;;8.48;7.68;;;;;;;;;;5085110;28;20256;-45
2021/09/06 04:07:39;;;;;;;8.38;7.53;;;;;;;;;;5093752;28;20174;-45
2021/09/06 04:10:06;;;;;;;8.45;7.65;;;;;;;;;;5093439;28;20583;-45
2021/09/06 04:12:32;;;;;;;8.73;7.85;;;;;;;;;;5092963;28;20462;-46
2021/09/06 04:14:58;;;;;;;9.70;7.65;;;;;;;;;;5077192;28;20188;-46
2021/09/06 04:17:24;;;;;;;10.02;7.57;;;;;;;;;;5092683;28;20177;-46
2021/09/06 04:19:50;;;;;;;8.95;7.22;;;;;;;;;;5093878;28;20184;-46
2021/09/06 04:22:16;;;;;;;8.05;7.25;;;;;;;;;;5074785;28;20543;-46
2021/09/06 04:24:42;;;;;;;9.18;7.80;;;;;;;;;;5073556;28;20174;-45
2021/09/06 04:27:08;;;;;;;9.88;7.97;;;;;;;;;;5072418;28;20182;-45
2021/09/06 04:29:34;;;;;;;11.82;7.63;;;;;;;;;;5071835;28;20274;-45
2021/09/06 04:32:00;;;;;;;9.65;7.70;;;;;;;;;;5073006;28;20278;-45
2021/09/06 04:34:26;;;;;;;8.93;6.55;;;;;;;;;;5083860;28;20254;-45
2021/09/06 04:36:52;;;;;;;8.75;7.25;;;;;;;;;;5077967;28;20652;-45
2021/09/06 04:39:18;;;;;;;8.18;7.38;;;;;;;;;;5089724;28;20224;-46
2021/09/06 04:41:44;;;;;;;7.53;6.70;;;;;;;;;;5085459;28;20191;-45
2021/09/06 04:44:10;;;;;;;8.18;7.30;;;;;;;;;;5095811;28;20169;-45
2021/09/06 04:46:36;;;;;;;9.38;7.35;;;;;;;;;;5088806;28;20197;-45
2021/09/06 04:49:02;;;;;;;10.63;7.07;;;;;;;;;;5078487;28;20198;-45
2021/09/06 04:51:28;;;;;;;9.20;6.57;;;;;;;;;;5097410;28;20177;-45
2021/09/06 04:53:54;;;;;;;7.20;6.05;;;;;;;;;;5080415;28;20202;-45
2021/09/06 04:56:22;;;;;;;6.57;5.97;;;;;;;;;;5077306;28;20618;-45
2021/09/06 04:58:48;;;;;;;6.20;5.60;;;;;;;;;;5076807;28;20549;-45
2021/09/06 05:01:14;;;;;;;7.60;5.75;;;;;;;;;;5079554;28;20213;-45
2021/09/06 05:03:40;;;;;;;6.47;5.60;;;;;;;;;;5097297;28;20568;-45
2021/09/06 05:06:06;;;;;;;6.93;6.07;;;;;;;;;;5091405;28;20232;-45
2021/09/06 05:08:32;;;;;;;8.68;6.75;;;;;;;;;;5096667;28;20185;-45
2021/09/06 05:10:58;;;;;;;7.68;6.63;;;;;;;;;;5097074;28;20842;-45
2021/09/06 05:13:25;;;;;;;8.63;5.75;;;;;;;;;;5097035;28;20650;-45
2021/09/06 05:15:51;;;;;;;6.53;5.30;;;;;;;;;;5077260;28;20184;-45
2021/09/06 05:18:17;;;;;;;7.78;6.70;;;;;;;;;;5076666;28;20190;-45
2021/09/06 05:20:43;;;;;;;7.28;5.72;;;;;;;;;;5081074;28;20462;-45
2021/09/06 05:23:09;;;;;;;7.80;6.13;;;;;;;;;;5097370;28;20410;-45
2021/09/06 05:25:35;;;;;;;9.52;6.90;;;;;;;;;;5096418;28;20774;-45
2021/09/06 05:28:01;;;;;;;8.65;7.32;;;;;;;;;;5096779;28;20616;-45
2021/09/06 05:30:27;;;;;;;7.82;7.03;;;;;;;;;;5096809;28;20190;-45
2021/09/06 05:32:53;;;;;;;7.22;6.15;;;;;;;;;;5097266;28;20268;-45
2021/09/06 05:35:19;;;;;;;7.90;7.10;;;;;;;;;;5094193;28;21600;-45
2021/09/06 05:37:45;;;;;;;7.60;6.57;;;;;;;;;;5084540;28;20276;-45
2021/09/06 05:40:12;;;;;;;9.43;7.38;;;;;;;;;;5095867;28;20438;-45
2021/09/06 05:42:38;;;;;;;8.23;6.30;;;;;;;;;;5084705;28;20269;-45
2021/09/06 05:45:05;;;;;;;7.18;5.82;;;;;;;;;;5076902;28;20218;-45
2021/09/06 05:47:31;;;;;;;10.65;7.55;;;;;;;;;;5076052;28;20434;-45
2021/09/06 05:49:57;;;;;;;8.13;6.75;;;;;;;;;;5077565;28;20163;-46
2021/09/06 05:52:23;;;;;;;7.63;6.88;;;;;;;;;;5095950;28;20472;-45
2021/09/06 05:54:49;;;;;;;8.63;7.45;;;;;;;;;;5096159;28;20201;-46
2021/09/06 05:57:15;;;;;;;9.88;7.30;;;;;;;;;;5077732;28;20178;-46
2021/09/06 05:59:41;;;;;;;7.47;6.65;;;;;;;;;;5076161;28;20181;-46
2021/09/06 06:02:07;;;;;;;7.40;6.57;;;;;;;;;;5076357;28;20175;-45
2021/09/06 06:04:33;;;;;;;7.43;6.28;;;;;;;;;;5084854;28;20581;-45
2021/09/06 06:07:00;;;;;;;8.68;6.60;;;;;;;;;;5087286;28;20217;-45
2021/09/06 06:09:26;;;;;;;7.43;6.55;;;;;;;;;;5096411;28;20272;-45
2021/09/06 06:11:51;;;;;;;8.30;6.70;;;;;;;;;;5096165;28;20289;-45
2021/09/06 06:14:17;;;;;;;7.07;6.10;;;;;;;;;;5085131;28;20207;-45
2021/09/06 06:16:44;;;;;;;8.20;6.70;;;;;;;;;;5076087;28;20167;-45
2021/09/06 06:19:10;;;;;;;8.68;6.18;;;;;;;;;;5075434;28;20231;-45
2021/09/06 06:21:35;;;;;;;8.13;6.82;;;;;;;;;;5088089;28;20553;-45
2021/09/06 06:24:02;;;;;;;8.65;6.72;;;;;;;;;;5096208;28;20174;-45
2021/09/06 06:26:29;;;;;;;7.95;7.05;;;;;;;;;;5083839;28;20206;-45
2021/09/06 06:28:56;;;;;;;8.65;7.18;;;;;;;;;;5075175;28;20181;-45
2021/09/06 06:31:22;;;;;;;8.25;7.28;;;;;;;;;;5075719;28;20303;-45
2021/09/06 06:33:48;;;;;;;7.45;6.63;;;;;;;;;;5086120;28;20239;-45
2021/09/06 06:36:14;;;;;;;7.13;6.22;;;;;;;;;;5095316;28;20217;-45
2021/09/06 06:38:40;;;;;;;7.10;6.28;;;;;;;;;;5093203;28;20303;-45
2021/09/06 06:41:06;;;;;;;8.05;6.03;;;;;;;;;;5086521;28;20670;-45
2021/09/06 06:43:32;;;;;;;7.40;6.53;;;;;;;;;;5075520;28;20216;-45
2021/09/06 06:45:58;;;;;;;6.93;6.22;;;;;;;;;;5075534;28;20171;-45
2021/09/06 06:48:24;;;;;;;6.15;5.47;;;;;;;;;;5074776;28;20193;-45
2021/09/06 06:50:50;;;;;;;6.50;5.85;;;;;;;;;;5074906;28;20212;-45
2021/09/06 06:53:17;;;;;;;8.07;5.78;;;;;;;;;;5075690;28;20293;-45
2021/09/06 06:55:43;;;;;;;6.05;5.45;;;;;;;;;;5076533;28;20258;-45
2021/09/06 06:58:09;;;;;;;6.97;5.80;;;;;;;;;;5073518;28;20240;-45
2021/09/06 07:00:35;;;;;;;7.10;6.07;;;;;;;;;;5076219;28;20275;-45
2021/09/06 07:03:01;;;;;;;7.78;6.97;;;;;;;;;;5094842;28;20552;-45
2021/09/06 07:05:27;;;;;;;7.40;6.70;;;;;;;;;;5091539;28;20258;-45
2021/09/06 07:07:53;;;;;;;7.97;6.75;;;;;;;;;;5073903;28;20175;-45
2021/09/06 07:10:19;;;;;;;7.05;6.35;;;;;;;;;;5094967;28;20186;-45
2021/09/06 07:12:45;;;;;;;7.53;6.70;;;;;;;;;;5095109;28;20264;-45
2021/09/06 07:15:12;;;;;;;7.32;6.60;;;;;;;;;;5081391;28;20205;-45
2021/09/06 07:17:38;;;;;;;7.03;6.32;;;;;;;;;;5094754;28;20161;-45
2021/09/06 07:20:05;;;;;;;8.57;7.70;;;;;;;;;;5094419;28;20157;-45
2021/09/06 07:22:31;;;;;;;8.60;7.55;;;;;;;;;;5074880;28;20174;-45
2021/09/06 07:24:57;;;;;;;7.38;6.68;;;;;;;;;;5074724;28;20166;-46
2021/09/06 07:27:23;;;;;;;7.60;6.80;;;;;;;;;;5093315;28;20170;-46
2021/09/06 07:29:49;;;;;;;8.02;7.22;;;;;;;;;;5094962;28;20259;-45
2021/09/06 07:32:15;;;;;;;7.57;6.88;;;;;;;;;;5094988;28;20306;-45
2021/09/06 07:34:41;;;;;;;7.50;6.70;;;;;;;;;;5094607;28;20571;-45
2021/09/06 07:37:08;;;;;;;7.10;6.40;;;;;;;;;;5078018;28;20182;-45
2021/09/06 07:39:34;;;;;;;6.68;6.07;;;;;;;;;;5092912;28;20189;-45
2021/09/06 07:42:01;;;;;;;7.05;6.35;;;;;;;;;;5086963;28;20194;-45
2021/09/06 07:44:27;;;;;;;6.60;6.00;;;;;;;;;;5094911;28;20246;-45
2021/09/06 07:46:53;;;;;;;6.97;6.28;;;;;;;;;;5078356;28;20181;-45
2021/09/06 07:49:20;;;;;;;6.82;6.03;;;;;;;;;;5074214;28;20213;-45
2021/09/06 07:51:54;;;;;;;8.23;7.43;;;;;;;;;;5074367;28;20186;-45
2021/09/06 07:54:21;;;;;;;7.95;7.15;;;;;;;;;;5078105;28;20220;-45
2021/09/06 07:56:48;;;;;;;10.00;6.80;;;;;;;;;;5075889;28;20167;-46
2021/09/06 07:59:15;;;;;;;7.88;6.97;;;;;;;;;;5056350;28;20217;-45
2021/09/06 08:01:41;;;;;;;8.02;7.25;;;;;;;;;;5088070;28;20369;-45
2021/09/06 08:04:07;;;;;;;8.20;7.40;;;;;;;;;;5094534;28;20422;-45
2021/09/06 08:06:33;;;;;;;8.40;7.30;;;;;;;;;;5094224;28;20269;-45
2021/09/06 08:08:59;;;;;;;9.20;8.25;;;;;;;;;;5093807;28;20173;-45
2021/09/06 08:11:25;;;;;;;8.90;7.78;;;;;;;;;;5094144;28;20176;-45
2021/09/06 08:13:51;;;;;;;8.57;7.63;;;;;;;;;;5094055;28;20202;-46
2021/09/06 08:16:17;;;;;;;8.90;7.43;;;;;;;;;;5094425;28;20170;-46
2021/09/06 08:18:43;;;;;;;8.60;7.70;;;;;;;;;;5096443;28;20180;-45
2021/09/06 08:21:09;;;;;;;9.07;8.13;;;;;;;;;;5098686;28;20166;-45
2021/09/06 08:23:35;;;;;;;8.00;6.97;;;;;;;;;;5078566;28;20220;-45
2021/09/06 08:26:01;;;;;;;7.80;7.00;;;;;;;;;;5078170;28;20197;-45
2021/09/06 08:28:27;;;;;;;7.70;6.97;;;;;;;;;;5077690;28;20186;-45
2021/09/06 08:30:53;;;;;;;8.13;6.55;;;;;;;;;;5087457;28;20206;-45
2021/09/06 08:33:19;;;;;;;9.63;7.88;;;;;;;;;;5078102;28;20198;-45
2021/09/06 08:35:47;;;;;;;8.45;7.50;;;;;;;;;;5077892;28;20541;-45
2021/09/06 08:38:13;;;;;;;7.60;6.85;;;;;;;;;;5086214;28;20178;-45
2021/09/06 08:40:39;;;;;;;9.98;7.43;;;;;;;;;;5092467;28;20273;-45
2021/09/06 08:43:06;;;;;;;7.85;6.88;;;;;;;;;;5083593;28;20178;-45
2021/09/06 08:45:36;;;;;;;8.02;6.95;;;;;;;;;;5104359;28;20239;-45
2021/09/06 08:48:02;;;;;;;8.02;7.10;;;;;;;;;;5096838;28;20174;-46
2021/09/06 08:50:28;;;;;;;7.82;7.03;;;;;;;;;;5087002;28;20247;-45
2021/09/06 08:52:54;;;;;;;10.93;8.20;;;;;;;;;;5079461;28;20515;-45
2021/09/06 08:55:21;;;;;;;10.68;7.63;;;;;;;;;;5096382;28;20252;-45
2021/09/06 08:57:47;;;;;;;10.00;7.47;;;;;;;;;;5097116;28;20442;-45
2021/09/06 09:00:13;;;;;;;8.18;7.32;;;;;;;;;;5097597;28;20246;-45
2021/09/06 09:02:42;;;;;;;8.27;7.32;;;;;;;;;;5097572;28;20287;-45
2021/09/06 09:05:09;;;;;;;7.38;6.55;;;;;;;;;;5077867;28;20175;-45
2021/09/06 09:07:37;;;;;;;8.65;7.22;;;;;;;;;;5076855;28;20648;-45
2021/09/06 09:10:04;;;;;;;8.38;7.57;;;;;;;;;;5094735;28;20169;-45
2021/09/06 09:12:30;;;;;;;9.55;7.80;;;;;;;;;;5097132;28;20564;-45
2021/09/06 09:14:57;;;;;;;9.45;8.02;;;;;;;;;;5081003;28;20582;-45
2021/09/06 09:17:23;;;;;;;13.70;9.30;;;;;;;;;;5077701;28;20546;-45
2021/09/06 09:19:50;;;;;;;10.20;9.07;;;;;;;;;;5077096;28;20228;-45
2021/09/06 09:22:17;;;;;;;10.60;8.93;;;;;;;;;;5077501;28;20557;-45
2021/09/06 09:24:44;;;;;;;9.75;8.07;;;;;;;;;;5077227;28;20442;-45
2021/09/06 09:27:18;;;;;;;8.93;7.75;;;;;;;;;;5084476;28;20174;-45
2021/09/06 09:29:45;;;;;;;8.90;7.55;;;;;;;;;;5095886;28;20873;-45
2021/09/06 09:32:12;;;;;;;9.98;8.30;;;;;;;;;;5095657;28;20553;-45
2021/09/06 09:34:39;;;;;;;9.27;8.32;;;;;;;;;;5096688;28;20850;-45
2021/09/06 09:37:05;;;;;;;8.25;7.45;;;;;;;;;;5095794;28;20208;-45
2021/09/06 09:39:33;;;;;;;9.13;7.88;;;;;;;;;;5095967;28;20211;-45
2021/09/06 09:42:11;;;;;;;8.55;7.65;;;;;;;;;;5089278;28;20189;-45
2021/09/06 09:44:45;;;;;;;8.55;7.55;;;;;;;;;;5096977;28;20182;-45
2021/09/06 09:47:11;;;;;;;7.97;7.18;;;;;;;;;;5094978;28;20260;-45
2021/09/06 09:49:38;;;;;;;7.47;6.78;;;;;;;;;;5096314;28;20178;-45
2021/09/06 09:52:06;;;;;;;9.25;7.45;;;;;;;;;;5080729;28;20187;-46
2021/09/06 09:54:32;;;;;;;8.55;7.65;;;;;;;;;;5099861;28;20221;-45
2021/09/06 09:56:58;;;;;;;9.80;7.38;;;;;;;;;;5098463;28;20181;-45
2021/09/06 09:59:24;;;;;;;8.52;7.63;;;;;;;;;;5084843;28;20178;-45
2021/09/06 10:02:16;;;;;;;8.18;7.15;;;;;;;;;;5095869;28;20252;-46
2021/09/06 10:04:50;;;;;;;8.10;7.20;;;;;;;;;;5092675;28;20186;-46
2021/09/06 10:07:18;;;;;;;8.32;7.53;;;;;;;;;;5094315;28;20242;-45
2021/09/06 10:09:45;;;;;;;9.98;7.45;;;;;;;;;;5096582;28;20179;-45
2021/09/06 10:12:12;;;;;;;8.50;7.65;;;;;;;;;;5081382;28;20173;-45
2021/09/06 10:14:48;;;;;;;9.80;8.63;;;;;;;;;;5095714;28;20584;-45
2021/09/06 10:17:14;;;;;;;10.55;9.00;;;;;;;;;;5094537;28;20902;-45
2021/09/06 10:19:43;;;;;;;8.13;7.32;;;;;;;;;;5093269;28;20549;-45
2021/09/06 10:22:23;;;;;;;11.73;8.82;;;;;;;;;;5095730;28;20280;-45
2021/09/06 10:24:58;;;;;;;8.82;7.95;;;;;;;;;;5096116;28;20244;-45
2021/09/06 10:27:25;;;;;;;9.02;8.13;;;;;;;;;;5095383;28;20451;-45
2021/09/06 10:30:01;;;;;;;9.05;7.70;;;;;;;;;;5086782;28;20876;-45
2021/09/06 10:32:34;;;;;;;9.48;8.30;;;;;;;;;;5075219;28;20231;-45
2021/09/06 10:35:04;;;;;;;9.25;7.43;;;;;;;;;;5075754;28;20205;-45
2021/09/06 10:37:34;;;;;;;9.10;7.90;;;;;;;;;;5085906;28;20190;-45
2021/09/06 10:40:00;;;;;;;9.48;8.18;;;;;;;;;;5074893;28;20189;-45
2021/09/06 10:42:30;;;;;;;8.57;7.78;;;;;;;;;;5077524;28;20247;-46
2021/09/06 10:45:00;;;;;;;8.90;7.63;;;;;;;;;;5095930;28;20205;-46
2021/09/06 10:47:26;;;;;;;10.18;8.18;;;;;;;;;;5094588;28;20548;-46
2021/09/06 10:49:52;;;;;;;8.85;7.95;;;;;;;;;;5095567;28;20178;-45
2021/09/06 10:52:20;;;;;;;8.48;7.60;;;;;;;;;;5095074;28;20603;-46
2021/09/06 10:54:46;;;;;;;9.45;7.80;;;;;;;;;;5094483;28;20539;-46
2021/09/06 10:57:13;;;;;;;9.00;8.10;;;;;;;;;;5077190;28;20182;-46
2021/09/06 10:59:43;;;;;;;9.23;8.32;;;;;;;;;;5074211;28;20178;-46
2021/09/06 11:02:09;;;;;;;8.68;7.00;;;;;;;;;;5075330;28;20278;-46
2021/09/06 11:04:35;;;;;;;9.07;8.13;;;;;;;;;;5075051;28;20554;-46
2021/09/06 11:07:03;;;;;;;8.88;7.97;;;;;;;;;;5090399;28;20173;-45
2021/09/06 11:09:30;;;;;;;9.00;8.10;;;;;;;;;;5084322;28;20175;-46
2021/09/06 11:12:03;;;;;;;8.68;7.72;;;;;;;;;;5074833;28;20194;-46
2021/09/06 11:14:33;;;;;;;10.88;8.45;;;;;;;;;;5087692;28;20215;-46
2021/09/06 11:16:59;;;;;;;10.07;7.97;;;;;;;;;;5094521;28;20260;-46
2021/09/06 11:19:27;;;;;;;9.95;8.02;;;;;;;;;;5094906;28;20253;-46
2021/09/06 11:21:57;;;;;;;8.43;7.63;;;;;;;;;;5094526;28;20177;-46
2021/09/06 11:24:26;;;;;;;8.98;8.07;;;;;;;;;;5095204;28;20446;-46
2021/09/06 11:26:52;;;;;;;10.70;8.90;;;;;;;;;;5094672;28;20182;-46
2021/09/06 11:29:18;;;;;;;8.82;7.93;;;;;;;;;;5094376;28;20483;-46
2021/09/06 11:31:47;;;;;;;8.48;7.55;;;;;;;;;;5094333;28;20177;-46
2021/09/06 11:34:14;;;;;;;8.63;7.57;;;;;;;;;;5094722;28;20193;-46
2021/09/06 11:36:40;;;;;;;9.80;7.85;;;;;;;;;;5080852;28;20190;-46
2021/09/06 11:39:07;;;;;;;8.40;7.57;;;;;;;;;;5092646;28;20234;-46
2021/09/06 11:41:36;;;;;;;10.27;8.15;;;;;;;;;;5087174;28;20207;-46
2021/09/06 11:44:02;;;;;;;8.70;7.80;;;;;;;;;;5057046;28;20175;-46
2021/09/06 11:46:28;;;;;;;8.80;7.97;;;;;;;;;;5086655;28;20299;-46
2021/09/06 11:48:54;;;;;;;9.40;8.40;;;;;;;;;;5093831;28;20281;-46
2021/09/06 11:51:25;;;;;;;9.00;8.05;;;;;;;;;;5093682;28;20181;-46
2021/09/06 11:54:01;;;;;;;8.63;7.72;;;;;;;;;;5094170;28;20198;-46
2021/09/06 11:56:28;;;;;;;8.40;7.57;;;;;;;;;;5081969;28;20184;-46
2021/09/06 11:58:56;;;;;;;9.18;7.22;;;;;;;;;;5092465;28;20766;-46
2021/09/06 12:01:23;;;;;;;10.90;8.05;;;;;;;;;;5093677;28;20568;-46
2021/09/06 12:03:50;;;;;;;8.93;8.02;;;;;;;;;;5094458;28;20162;-46
2021/09/06 12:06:17;;;;;;;9.32;7.72;;;;;;;;;;5089937;28;20272;-46
2021/09/06 12:08:53;;;;;;;8.77;7.85;;;;;;;;;;5094104;28;20250;-46
2021/09/06 12:11:19;;;;;;;8.80;7.78;;;;;;;;;;5093722;28;20193;-46
2021/09/06 12:13:55;;;;;;;9.48;7.60;;;;;;;;;;5093657;28;20197;-46
2021/09/06 12:16:26;;;;;;;8.10;7.30;;;;;;;;;;5082513;28;20269;-46
2021/09/06 12:18:52;;;;;;;8.68;7.78;;;;;;;;;;5091125;28;20173;-46
2021/09/06 12:21:18;;;;;;;8.85;7.80;;;;;;;;;;5094455;28;20193;-46
2021/09/06 12:23:46;;;;;;;8.63;7.65;;;;;;;;;;5094475;28;20204;-46
2021/09/06 12:26:13;;;;;;;8.90;8.00;;;;;;;;;;5093835;28;20177;-46
2021/09/06 12:28:49;;;;;;;8.88;7.97;;;;;;;;;;5093658;28;20189;-46
2021/09/06 12:31:16;;;;;;;9.15;7.82;;;;;;;;;;5093952;28;20201;-46
2021/09/06 12:33:42;;;;;;;10.13;8.05;;;;;;;;;;5093552;28;20193;-46
2021/09/06 12:36:08;;;;;;;8.88;7.97;;;;;;;;;;5094138;28;20435;-45
2021/09/06 12:38:35;;;;;;;9.38;7.60;;;;;;;;;;5091000;28;20276;-45
2021/09/06 12:41:01;;;;;;;8.30;7.50;;;;;;;;;;5090900;28;20186;-45
2021/09/06 12:43:27;;;;;;;8.30;7.50;;;;;;;;;;5094073;28;20583;-45
2021/09/06 12:45:53;;;;;;;8.25;7.45;;;;;;;;;;5094069;28;20557;-45
2021/09/06 12:48:20;;;;;;;9.13;8.23;;;;;;;;;;5093669;28;20182;-45
2021/09/06 12:50:46;;;;;;;8.80;7.90;;;;;;;;;;5093855;28;20182;-45
2021/09/06 12:53:12;;;;;;;10.32;7.93;;;;;;;;;;5093962;28;20200;-45
2021/09/06 12:55:38;;;;;;;8.23;7.43;;;;;;;;;;5088071;28;20178;-45
2021/09/06 12:58:04;;;;;;;8.52;7.72;;;;;;;;;;5084771;28;20250;-45
2021/09/06 13:00:30;;;;;;;8.15;7.35;;;;;;;;;;5073769;28;20206;-46
2021/09/06 13:02:56;;;;;;;10.68;7.80;;;;;;;;;;5074029;28;20167;-46
2021/09/06 13:05:22;;;;;;;8.57;7.47;;;;;;;;;;5075722;28;20167;-46
2021/09/06 13:07:48;;;;;;;7.75;6.95;;;;;;;;;;5076821;28;20174;-46
2021/09/06 13:10:14;;;;;;;7.78;6.88;;;;;;;;;;5095194;28;20619;-46
2021/09/06 13:12:41;;;;;;;9.20;8.25;;;;;;;;;;5097107;28;20228;-46
2021/09/06 13:15:08;;;;;;;9.85;7.50;;;;;;;;;;5090748;28;20247;-46
2021/09/06 13:17:34;;;;;;;9.63;7.15;;;;;;;;;;5078115;28;20185;-46
2021/09/06 13:20:00;;;;;;;8.27;7.47;;;;;;;;;;5077459;28;20241;-46
2021/09/06 13:22:26;;;;;;;8.20;7.40;;;;;;;;;;5076936;28;20266;-46
2021/09/06 13:24:52;;;;;;;8.00;7.15;;;;;;;;;;5077475;28;20174;-46
2021/09/06 13:27:19;;;;;;;8.65;7.32;;;;;;;;;;5076760;28;20293;-46
2021/09/06 13:29:45;;;;;;;8.45;7.63;;;;;;;;;;5088478;28;20596;-46
2021/09/06 13:32:11;;;;;;;10.27;7.68;;;;;;;;;;5097340;28;20458;-46
2021/09/06 13:34:38;;;;;;;8.77;7.10;;;;;;;;;;5096659;28;20213;-46
2021/09/06 13:37:04;;;;;;;19.67;6.93;;;;;;;;;;5080208;28;20173;-46
2021/09/06 13:39:31;;;;;;;12.68;7.05;;;;;;;;;;5096881;28;20268;-46
2021/09/06 13:41:57;;;;;;;18.60;6.93;;;;;;;;;;5080776;28;20244;-45
2021/09/06 13:44:23;;;;;;;15.70;7.32;;;;;;;;;;5075228;28;20174;-46
2021/09/06 13:46:51;;;;;;;11.20;7.25;;;;;;;;;;5089615;28;20272;-46
2021/09/06 13:49:17;;;;;;;14.68;7.40;;;;;;;;;;5094885;28;20256;-46
2021/09/06 13:51:43;;;;;;;9.88;7.05;;;;;;;;;;5080702;28;20222;-46
2021/09/06 13:54:09;;;;;;;10.27;7.38;;;;;;;;;;5075345;28;20439;-46
2021/09/06 13:56:36;;;;;;;11.55;7.28;;;;;;;;;;5086736;28;20175;-46
2021/09/06 13:59:04;;;;;;;12.68;7.50;;;;;;;;;;5078502;28;20556;-46
2021/09/06 14:01:30;;;;;;;8.48;7.20;;;;;;;;;;5090276;28;20212;-46
2021/09/06 14:03:56;;;;;;;9.45;6.53;;;;;;;;;;5096354;28;20180;-46
2021/09/06 14:06:22;;;;;;;10.77;6.57;;;;;;;;;;5095940;28;20202;-46
2021/09/06 14:08:49;;;;;;;7.70;6.85;;;;;;;;;;5095862;28;20311;-46
2021/09/06 14:11:15;;;;;;;9.70;6.80;;;;;;;;;;5096260;28;20545;-46
2021/09/06 14:13:41;;;;;;;9.68;6.50;;;;;;;;;;5090337;28;20187;-46
2021/09/06 14:16:07;;;;;;;7.53;6.68;;;;;;;;;;5075855;28;20204;-46
2021/09/06 14:18:33;;;;;;;7.85;5.80;;;;;;;;;;5076649;28;20171;-46
2021/09/06 14:21:01;;;;;;;9.02;7.28;;;;;;;;;;5084624;28;20257;-46
2021/09/06 14:23:27;;;;;;;7.65;6.90;;;;;;;;;;5076026;28;20174;-46
2021/09/06 14:25:56;;;;;;;8.13;7.25;;;;;;;;;;5090843;28;20212;-46
2021/09/06 14:28:22;;;;;;;9.38;6.90;;;;;;;;;;5095740;28;20202;-46
2021/09/06 14:30:48;;;;;;;9.07;6.90;;;;;;;;;;5095986;28;20272;-46
2021/09/06 14:33:14;;;;;;;7.75;6.60;;;;;;;;;;5095760;28;20362;-46